createdAt,value
2018-07-01T00:02:03.620Z,17.80
2018-07-01T00:04:40.808Z,17.60
2018-07-01T00:07:16.638Z,17.60
2018-07-01T00:09:56.100Z,17.50
2018-07-01T00:12:27.361Z,17.50
2018-07-01T00:14:59.594Z,17.60
2018-07-01T00:17:31.261Z,17.50
2018-07-01T00:20:03.472Z,17.50
2018-07-01T00:22:35.132Z,17.50
2018-07-01T00:25:14.291Z,17.40
2018-07-01T00:27:45.015Z,17.50
2018-07-01T00:30:17.732Z,17.40
2018-07-01T00:32:57.013Z,17.30
2018-07-01T00:35:27.375Z,17.20
2018-07-01T00:38:06.719Z,17.20
2018-07-01T00:40:45.915Z,17.30
2018-07-01T00:43:25.106Z,17.20
2018-07-01T00:45:57.315Z,17.20
2018-07-01T00:48:29.197Z,17.10
2018-07-01T00:50:59.876Z,17.10
2018-07-01T00:53:38.945Z,17.00
2018-07-01T00:56:10.701Z,17.00
2018-07-01T00:58:42.039Z,17.10
2018-07-01T01:01:13.280Z,17.00
2018-07-01T01:03:50.569Z,16.90
2018-07-01T01:06:21.916Z,17.00
2018-07-01T01:08:58.777Z,16.90
2018-07-01T01:11:30.616Z,17.00
2018-07-01T01:14:02.806Z,16.90
2018-07-01T01:16:34.216Z,16.80
2018-07-01T01:19:05.616Z,16.60
2018-07-01T01:21:41.667Z,16.50
2018-07-01T01:24:14.006Z,16.40
2018-07-01T01:26:53.544Z,16.40
2018-07-01T01:29:25.324Z,16.40
2018-07-01T01:31:55.397Z,16.40
2018-07-01T01:34:34.689Z,16.30
2018-07-01T01:37:14.105Z,16.30
2018-07-01T01:39:45.885Z,16.30
2018-07-01T01:42:23.124Z,16.30
2018-07-01T01:44:59.905Z,16.30
2018-07-01T01:47:57.551Z,16.20
2018-07-01T01:50:34.438Z,16.30
2018-07-01T01:53:16.292Z,16.20
2018-07-01T01:55:55.039Z,16.10
2018-07-01T01:58:34.558Z,16.00
2018-07-01T02:01:17.511Z,15.90
2018-07-01T02:03:56.662Z,15.90
2018-07-01T02:06:33.455Z,15.80
2018-07-01T02:09:09.522Z,15.70
2018-07-01T02:11:51.550Z,15.80
2018-07-01T02:14:38.205Z,15.80
2018-07-01T02:17:21.770Z,15.80
2018-07-01T02:20:01.051Z,15.70
2018-07-01T02:22:42.993Z,15.80
2018-07-01T02:25:18.953Z,15.70
2018-07-01T02:27:58.242Z,15.60
2018-07-01T02:30:30.244Z,15.70
2018-07-01T02:33:09.491Z,15.70
2018-07-01T02:35:48.956Z,15.50
2018-07-01T02:38:28.621Z,15.50
2018-07-01T02:41:08.037Z,15.40
2018-07-01T02:43:47.360Z,15.30
2018-07-01T02:46:18.758Z,15.20
2018-07-01T02:48:50.230Z,15.30
2018-07-01T02:51:22.192Z,15.30
2018-07-01T02:53:52.266Z,15.30
2018-07-01T02:56:24.015Z,15.30
2018-07-01T02:58:55.655Z,15.30
2018-07-01T03:01:27.313Z,15.40
2018-07-01T03:03:59.308Z,15.40
2018-07-01T03:06:30.726Z,15.30
2018-07-01T03:09:02.616Z,15.30
2018-07-01T03:11:34.335Z,15.40
2018-07-01T03:14:06.384Z,15.40
2018-07-01T03:16:38.305Z,15.30
2018-07-01T03:19:10.136Z,15.30
2018-07-01T03:21:49.520Z,15.30
2018-07-01T03:24:28.910Z,15.30
2018-07-01T03:27:04.540Z,15.20
2018-07-01T03:29:36.260Z,15.20
2018-07-01T03:32:07.600Z,15.10
2018-07-01T03:34:39.579Z,15.10
2018-07-01T03:37:18.795Z,15.10
2018-07-01T03:39:50.236Z,15.00
2018-07-01T03:42:21.916Z,15.00
2018-07-01T03:44:54.715Z,15.00
2018-07-01T03:47:30.676Z,15.00
2018-07-01T03:50:02.337Z,15.00
2018-07-01T03:52:33.536Z,15.00
2018-07-01T03:55:06.272Z,15.00
2018-07-01T03:57:38.300Z,15.10
2018-07-01T04:00:10.541Z,15.00
2018-07-01T04:02:42.613Z,15.10
2018-07-01T04:05:14.475Z,15.10
2018-07-01T04:07:47.641Z,15.00
2018-07-01T04:10:19.241Z,15.00
2018-07-01T04:12:53.951Z,15.00
2018-07-01T04:15:26.091Z,15.00
2018-07-01T04:18:05.778Z,15.00
2018-07-01T04:20:45.004Z,15.00
2018-07-01T04:23:19.868Z,14.90
2018-07-01T04:25:52.098Z,14.90
2018-07-01T04:28:31.642Z,14.90
2018-07-01T04:31:10.066Z,14.90
2018-07-01T04:33:42.017Z,15.00
2018-07-01T04:36:14.326Z,15.10
2018-07-01T04:38:48.414Z,15.00
2018-07-01T04:41:20.444Z,15.00
2018-07-01T04:43:56.724Z,15.00
2018-07-01T04:46:35.983Z,15.00
2018-07-01T04:49:08.178Z,15.20
2018-07-01T04:51:40.281Z,15.30
2018-07-01T04:54:13.203Z,15.50
2018-07-01T04:56:43.770Z,15.60
2018-07-01T04:59:15.880Z,15.70
2018-07-01T05:01:48.481Z,15.80
2018-07-01T05:04:20.651Z,16.00
2018-07-01T05:06:52.823Z,16.10
2018-07-01T05:09:32.102Z,16.20
2018-07-01T05:12:11.353Z,16.30
2018-07-01T05:14:43.637Z,16.40
2018-07-01T05:17:15.651Z,16.60
2018-07-01T05:19:55.083Z,16.80
2018-07-01T05:22:31.712Z,16.90
2018-07-01T05:25:09.562Z,17.20
2018-07-01T05:27:46.171Z,17.50
2018-07-01T05:30:22.261Z,17.80
2018-07-01T05:32:56.293Z,18.00
2018-07-01T05:35:28.582Z,18.30
2018-07-01T05:38:00.431Z,18.50
2018-07-01T05:40:31.962Z,18.70
2018-07-01T05:43:14.638Z,18.90
2018-07-01T05:45:50.058Z,19.10
2018-07-01T05:48:29.879Z,19.30
2018-07-01T05:51:00.548Z,19.40
2018-07-01T05:53:32.219Z,19.60
2018-07-01T05:56:02.579Z,19.70
2018-07-01T05:58:34.227Z,20.00
2018-07-01T06:01:06.879Z,20.20
2018-07-01T06:03:39.168Z,20.40
2018-07-01T06:06:11.068Z,21.00
2018-07-01T06:08:41.736Z,22.00
2018-07-01T06:11:13.998Z,23.20
2018-07-01T06:13:53.773Z,24.10
2018-07-01T06:16:25.861Z,25.10
2018-07-01T06:18:58.733Z,26.10
2018-07-01T06:21:30.844Z,26.60
2018-07-01T06:24:03.233Z,26.40
2018-07-01T06:26:42.448Z,26.20
2018-07-01T06:29:14.489Z,25.20
2018-07-01T06:37:01.409Z,23.30
2018-07-01T06:39:33.118Z,22.70
2018-07-01T06:42:08.982Z,22.00
2018-07-01T06:44:44.622Z,21.50
2018-07-01T06:47:16.687Z,21.00
2018-07-01T06:49:48.848Z,20.70
2018-07-01T06:52:28.842Z,20.30
2018-07-01T06:55:00.974Z,20.10
2018-07-01T06:57:41.267Z,19.80
2018-07-01T07:00:17.718Z,19.60
2018-07-01T07:02:53.590Z,19.30
2018-07-01T07:05:31.425Z,19.20
2018-07-01T07:08:06.494Z,19.00
2018-07-01T07:10:43.697Z,18.90
2018-07-01T07:13:20.858Z,18.90
2018-07-01T07:15:56.458Z,18.90
2018-07-01T07:18:30.278Z,18.80
2018-07-01T07:21:07.146Z,18.70
2018-07-01T07:23:44.138Z,18.80
2018-07-01T07:26:23.441Z,18.70
2018-07-01T07:29:00.372Z,18.70
2018-07-01T07:31:35.478Z,18.80
2018-07-01T07:34:07.647Z,18.80
2018-07-01T07:36:40.859Z,18.80
2018-07-01T07:39:16.321Z,18.90
2018-07-01T07:41:51.824Z,18.90
2018-07-01T07:44:27.765Z,18.90
2018-07-01T07:47:02.152Z,18.90
2018-07-01T07:49:36.862Z,19.00
2018-07-01T07:52:13.345Z,19.10
2018-07-01T07:54:46.375Z,19.20
2018-07-01T07:57:21.519Z,19.20
2018-07-01T07:59:56.814Z,19.20
2018-07-01T08:02:32.734Z,19.30
2018-07-01T08:05:05.334Z,19.30
2018-07-01T08:07:37.415Z,19.40
2018-07-01T08:10:17.124Z,19.40
2018-07-01T08:12:53.566Z,19.40
2018-07-01T08:15:29.680Z,19.40
2018-07-01T08:18:05.376Z,19.40
2018-07-01T08:20:39.775Z,19.50
2018-07-01T08:23:15.523Z,19.50
2018-07-01T08:25:52.847Z,19.60
2018-07-01T08:28:26.327Z,19.70
2018-07-01T08:30:59.417Z,19.70
2018-07-01T08:33:31.716Z,19.70
2018-07-01T08:36:08.639Z,19.80
2018-07-01T08:38:46.531Z,19.80
2018-07-01T08:41:24.452Z,19.80
2018-07-01T08:44:00.873Z,19.80
2018-07-01T08:46:37.456Z,19.90
2018-07-01T08:49:16.757Z,20.00
2018-07-01T08:51:52.990Z,20.00
2018-07-01T08:54:29.065Z,20.10
2018-07-01T08:57:07.031Z,20.20
2018-07-01T08:59:43.632Z,20.30
2018-07-01T09:02:19.265Z,20.30
2018-07-01T09:04:55.775Z,20.40
2018-07-01T09:07:31.485Z,20.40
2018-07-01T09:10:10.693Z,20.40
2018-07-01T09:12:46.431Z,20.40
2018-07-01T09:15:18.722Z,20.50
2018-07-01T09:17:50.882Z,20.60
2018-07-01T09:20:27.099Z,20.60
2018-07-01T09:23:00.476Z,20.70
2018-07-01T09:25:38.166Z,20.90
2018-07-01T09:28:17.529Z,20.90
2018-07-01T09:30:51.826Z,21.00
2018-07-01T09:33:26.512Z,21.10
2018-07-01T09:36:06.264Z,21.20
2018-07-01T09:38:41.078Z,21.30
2018-07-01T09:41:16.211Z,21.30
2018-07-01T09:43:55.442Z,21.50
2018-07-01T09:46:31.534Z,21.50
2018-07-01T09:49:10.965Z,21.60
2018-07-01T09:51:48.396Z,21.70
2018-07-01T09:54:24.376Z,21.80
2018-07-01T09:57:02.257Z,21.90
2018-07-01T09:59:37.493Z,22.00
2018-07-01T10:02:16.942Z,22.10
2018-07-01T10:04:50.122Z,22.20
2018-07-01T10:07:26.192Z,22.20
2018-07-01T10:10:05.542Z,22.20
2018-07-01T10:12:44.702Z,22.30
2018-07-01T10:15:24.546Z,22.30
2018-07-01T10:18:03.079Z,22.40
2018-07-01T10:20:40.534Z,22.50
2018-07-01T10:25:58.669Z,22.50
2018-07-01T10:28:38.037Z,22.40
2018-07-01T10:31:17.443Z,22.50
2018-07-01T10:33:53.691Z,22.60
2018-07-01T10:36:29.971Z,22.60
2018-07-01T10:39:07.175Z,22.70
2018-07-01T10:41:46.515Z,22.60
2018-07-01T10:44:26.700Z,22.70
2018-07-01T10:47:03.125Z,22.80
2018-07-01T10:49:37.914Z,22.80
2018-07-01T10:52:17.071Z,22.80
2018-07-01T10:54:53.303Z,22.80
2018-07-01T10:57:30.392Z,22.90
2018-07-01T11:00:10.008Z,22.90
2018-07-01T11:02:47.910Z,23.00
2018-07-01T11:07:58.531Z,23.10
2018-07-01T11:10:36.511Z,23.20
2018-07-01T11:13:11.808Z,23.20
2018-07-01T11:15:49.621Z,23.30
2018-07-01T11:18:28.521Z,23.30
2018-07-01T11:21:04.741Z,23.30
2018-07-01T11:23:38.496Z,23.40
2018-07-01T11:26:31.524Z,23.50
2018-07-01T11:29:02.041Z,23.50
2018-07-01T11:31:32.452Z,23.40
2018-07-01T11:34:11.250Z,23.50
2018-07-01T11:36:41.850Z,23.50
2018-07-01T11:39:12.861Z,23.50
2018-07-01T11:41:44.420Z,23.50
2018-07-01T11:44:23.780Z,23.40
2018-07-01T11:47:00.375Z,23.40
2018-07-01T11:49:31.242Z,23.30
2018-07-01T11:52:02.161Z,23.40
2018-07-01T11:54:37.101Z,23.40
2018-07-01T11:57:07.890Z,23.40
2018-07-01T11:59:40.389Z,23.50
2018-07-01T12:02:11.113Z,23.50
2018-07-01T12:05:16.202Z,23.60
2018-07-01T12:07:22.340Z,23.70
2018-07-01T12:09:53.181Z,23.70
2018-07-01T12:12:24.381Z,23.70
2018-07-01T12:17:40.495Z,23.80
2018-07-01T12:20:12.391Z,23.70
2018-07-01T12:22:43.671Z,23.70
2018-07-01T12:25:19.161Z,23.70
2018-07-01T12:27:50.831Z,23.70
2018-07-01T12:30:21.510Z,23.70
2018-07-01T12:32:52.578Z,23.80
2018-07-01T12:35:25.705Z,23.90
2018-07-01T12:37:57.330Z,23.80
2018-07-01T12:40:30.408Z,23.90
2018-07-01T12:43:00.960Z,23.90
2018-07-01T12:45:34.059Z,23.90
2018-07-01T12:48:04.760Z,23.90
2018-07-01T12:50:40.904Z,24.00
2018-07-01T12:53:12.024Z,23.90
2018-07-01T12:55:52.031Z,23.90
2018-07-01T12:58:23.878Z,24.00
2018-07-01T13:00:54.520Z,23.90
2018-07-01T13:03:25.320Z,23.90
2018-07-01T13:06:01.754Z,23.90
2018-07-01T13:08:33.635Z,23.90
2018-07-01T13:11:10.079Z,24.00
2018-07-01T13:13:55.321Z,24.00
2018-07-01T13:16:26.881Z,24.00
2018-07-01T13:18:57.930Z,24.00
2018-07-01T13:21:29.150Z,23.90
2018-07-01T13:24:05.371Z,23.90
2018-07-01T13:26:36.020Z,23.90
2018-07-01T13:29:07.440Z,24.00
2018-07-01T13:31:37.961Z,24.00
2018-07-01T13:34:14.970Z,24.00
2018-07-01T13:36:47.261Z,24.00
2018-07-01T13:39:18.861Z,24.00
2018-07-01T13:41:57.800Z,23.90
2018-07-01T13:44:34.074Z,23.90
2018-07-01T13:47:05.233Z,23.90
2018-07-01T13:49:35.983Z,24.00
2018-07-01T13:52:08.486Z,24.00
2018-07-01T13:57:14.208Z,24.00
2018-07-01T13:59:45.945Z,24.00
2018-07-01T14:02:33.993Z,24.00
2018-07-01T14:05:11.275Z,23.90
2018-07-01T14:07:42.404Z,24.00
2018-07-01T14:10:13.453Z,23.90
2018-07-01T14:12:44.185Z,23.90
2018-07-01T14:15:37.147Z,23.90
2018-07-01T14:20:54.273Z,24.00
2018-07-01T14:23:25.833Z,24.00
2018-07-01T14:26:16.053Z,24.00
2018-07-01T14:28:47.331Z,23.90
2018-07-01T14:31:24.203Z,23.90
2018-07-01T14:33:55.723Z,24.00
2018-07-01T14:36:26.633Z,24.00
2018-07-01T14:38:57.743Z,24.10
2018-07-01T14:41:28.203Z,24.20
2018-07-01T14:44:14.305Z,24.20
2018-07-01T14:46:44.955Z,24.10
2018-07-01T14:49:16.279Z,24.10
2018-07-01T14:54:17.337Z,24.10
2018-07-01T14:56:47.805Z,24.10
2018-07-01T14:59:18.627Z,24.10
2018-07-01T15:01:49.368Z,24.20
2018-07-01T15:04:20.195Z,24.10
2018-07-01T15:06:52.714Z,24.10
2018-07-01T15:09:23.735Z,24.10
2018-07-01T15:12:12.964Z,24.10
2018-07-01T15:14:44.974Z,24.00
2018-07-01T15:17:16.777Z,24.10
2018-07-01T15:19:48.384Z,24.10
2018-07-01T15:22:19.335Z,24.10
2018-07-01T15:24:52.743Z,24.10
2018-07-01T15:27:24.684Z,24.10
2018-07-01T15:29:55.873Z,24.10
2018-07-01T15:32:26.503Z,24.10
2018-07-01T15:34:58.375Z,24.10
2018-07-01T15:37:29.523Z,24.00
2018-07-01T15:40:00.124Z,24.00
2018-07-01T15:42:30.774Z,24.00
2018-07-01T15:45:05.343Z,24.00
2018-07-01T15:47:36.404Z,24.00
2018-07-01T15:50:07.194Z,23.90
2018-07-01T15:52:37.569Z,23.90
2018-07-01T15:55:13.014Z,24.00
2018-07-01T15:57:43.974Z,23.90
2018-07-01T16:00:16.365Z,23.90
2018-07-01T16:02:47.535Z,23.90
2018-07-01T16:05:19.723Z,23.90
2018-07-01T16:07:50.663Z,23.90
2018-07-01T16:10:22.023Z,23.90
2018-07-01T16:12:52.783Z,23.90
2018-07-01T16:15:35.787Z,23.90
2018-07-01T16:20:35.894Z,23.90
2018-07-01T16:23:07.243Z,23.90
2018-07-01T16:26:13.377Z,23.80
2018-07-01T16:28:49.093Z,23.70
2018-07-01T16:31:20.155Z,23.60
2018-07-01T16:33:51.014Z,23.50
2018-07-01T16:36:22.475Z,23.60
2018-07-01T16:38:54.004Z,23.50
2018-07-01T16:41:25.684Z,23.50
2018-07-01T16:44:40.006Z,23.40
2018-07-01T16:47:11.114Z,23.40
2018-07-01T16:49:41.764Z,23.30
2018-07-01T16:52:12.334Z,23.30
2018-07-01T16:55:33.813Z,23.30
2018-07-01T16:58:05.245Z,23.20
2018-07-01T17:00:35.603Z,23.20
2018-07-01T17:03:08.084Z,23.10
2018-07-01T17:05:40.035Z,23.10
2018-07-01T17:08:11.784Z,23.10
2018-07-01T17:10:43.583Z,23.00
2018-07-01T17:13:15.248Z,23.00
2018-07-01T17:21:04.445Z,23.00
2018-07-01T17:23:44.351Z,22.90
2018-07-01T17:26:23.635Z,22.80
2018-07-01T17:29:03.260Z,22.80
2018-07-01T17:31:47.354Z,22.70
2018-07-01T17:34:26.380Z,22.70
2018-07-01T17:37:05.479Z,22.60
2018-07-01T17:39:44.866Z,22.50
2018-07-01T17:42:23.155Z,22.50
2018-07-01T17:45:02.648Z,22.40
2018-07-01T17:47:42.587Z,22.40
2018-07-01T17:50:22.151Z,22.40
2018-07-01T17:53:01.248Z,22.30
2018-07-01T17:55:40.814Z,22.30
2018-07-01T17:58:20.244Z,22.20
2018-07-01T18:00:57.191Z,22.10
2018-07-01T18:06:12.752Z,22.00
2018-07-01T18:08:50.522Z,21.90
2018-07-01T18:11:27.405Z,21.90
2018-07-01T18:14:06.270Z,21.80
2018-07-01T18:16:45.755Z,21.70
2018-07-01T18:19:22.718Z,21.70
2018-07-01T18:22:12.589Z,21.50
2018-07-01T18:24:58.065Z,21.40
2018-07-01T18:27:15.752Z,21.30
2018-07-01T18:29:51.026Z,21.20
2018-07-01T18:32:27.057Z,21.00
2018-07-01T18:35:06.765Z,21.00
2018-07-01T18:37:43.798Z,20.90
2018-07-01T18:40:19.996Z,20.80
2018-07-01T18:42:53.045Z,20.80
2018-07-01T18:45:28.372Z,20.70
2018-07-01T18:48:00.191Z,20.70
2018-07-01T18:50:32.275Z,20.60
2018-07-01T18:53:04.362Z,20.50
2018-07-01T18:55:38.442Z,20.40
2018-07-01T18:58:10.023Z,20.40
2018-07-01T19:00:49.040Z,20.30
2018-07-01T19:03:28.220Z,20.30
2018-07-01T19:06:07.599Z,20.20
2018-07-01T19:08:46.785Z,20.10
2018-07-01T19:11:26.028Z,20.10
2018-07-01T19:14:05.313Z,20.10
2018-07-01T19:16:44.539Z,20.00
2018-07-01T19:19:23.546Z,20.00
2018-07-01T19:22:02.696Z,19.90
2018-07-01T19:24:42.049Z,19.80
2018-07-01T19:27:20.777Z,19.80
2018-07-01T19:29:58.125Z,19.80
2018-07-01T19:32:36.974Z,19.70
2018-07-01T19:35:13.531Z,19.60
2018-07-01T19:37:49.242Z,19.60
2018-07-01T19:40:25.006Z,19.50
2018-07-01T19:42:59.211Z,19.50
2018-07-01T19:45:32.344Z,19.40
2018-07-01T19:48:04.178Z,19.30
2018-07-01T19:50:36.235Z,19.20
2018-07-01T19:53:08.186Z,19.10
2018-07-01T19:56:01.921Z,19.00
2018-07-01T19:58:34.918Z,18.90
2018-07-01T20:01:06.345Z,18.90
2018-07-01T20:03:37.584Z,18.80
2018-07-01T20:06:23.581Z,18.80
2018-07-01T20:08:56.677Z,18.90
2018-07-01T20:11:29.403Z,18.90
2018-07-01T20:14:00.585Z,18.90
2018-07-01T20:16:55.429Z,18.80
2018-07-01T20:19:31.802Z,18.80
2018-07-01T20:22:13.807Z,18.80
2018-07-01T20:27:25.052Z,18.80
2018-07-01T20:30:01.222Z,18.70
2018-07-01T20:32:37.961Z,18.60
2018-07-01T20:35:15.891Z,18.60
2018-07-01T20:40:25.731Z,18.50
2018-07-01T20:42:56.709Z,18.50
2018-07-01T20:45:32.518Z,18.40
2018-07-01T20:48:17.107Z,18.30
2018-07-01T20:50:48.791Z,18.20
2018-07-01T20:56:28.881Z,18.20
2018-07-01T20:58:59.492Z,18.20
2018-07-01T21:01:30.445Z,18.10
2018-07-01T21:04:00.894Z,18.10
2018-07-01T21:06:31.751Z,18.00
2018-07-01T21:09:02.263Z,17.90
2018-07-01T21:11:32.772Z,17.80
2018-07-01T21:14:03.851Z,17.70
2018-07-01T21:16:34.233Z,17.70
2018-07-01T21:19:05.442Z,17.60
2018-07-01T21:21:38.713Z,17.60
2018-07-01T21:24:09.233Z,17.60
2018-07-01T21:26:39.922Z,17.60
2018-07-01T21:29:11.172Z,17.50
2018-07-01T21:31:45.454Z,17.40
2018-07-01T21:34:17.682Z,17.40
2018-07-01T21:36:48.072Z,17.40
2018-07-01T21:39:18.914Z,17.40
2018-07-01T21:41:55.082Z,17.40
2018-07-01T21:44:25.664Z,17.30
2018-07-01T21:46:56.442Z,17.30
2018-07-01T21:49:27.501Z,17.20
2018-07-01T21:52:04.002Z,17.20
2018-07-01T21:54:34.300Z,17.10
2018-07-01T21:57:05.222Z,17.10
2018-07-01T21:59:35.932Z,17.10
2018-07-01T22:02:12.331Z,17.10
2018-07-01T22:04:43.331Z,17.10
2018-07-01T22:07:15.802Z,17.10
2018-07-01T22:09:47.502Z,17.10
2018-07-01T22:12:33.522Z,17.10
2018-07-01T22:16:14.211Z,17.00
2018-07-01T22:18:44.592Z,16.90
2018-07-01T22:21:15.033Z,16.90
2018-07-01T22:23:46.292Z,16.90
2018-07-01T22:26:17.444Z,16.80
2018-07-01T22:28:48.173Z,16.80
2018-07-01T22:31:18.642Z,16.80
2018-07-01T22:33:50.271Z,16.80
2018-07-01T22:36:22.021Z,16.70
2018-07-01T22:38:54.888Z,16.70
2018-07-01T22:41:25.732Z,16.60
2018-07-01T22:43:56.663Z,16.60
2018-07-01T22:46:28.541Z,16.50
2018-07-01T22:49:00.171Z,16.50
2018-07-01T22:51:32.812Z,16.50
2018-07-01T22:54:04.582Z,16.40
2018-07-01T22:56:36.451Z,16.30
2018-07-01T22:59:07.913Z,16.30
2018-07-01T23:01:45.462Z,16.30
2018-07-01T23:04:17.395Z,16.30
2018-07-01T23:06:48.732Z,16.20
2018-07-01T23:11:51.213Z,16.10
2018-07-01T23:14:22.752Z,16.00
2018-07-01T23:16:54.592Z,16.00
2018-07-01T23:19:25.921Z,16.00
2018-07-01T23:21:57.432Z,16.00
2018-07-01T23:24:28.302Z,16.00
2018-07-01T23:27:01.264Z,15.90
2018-07-01T23:32:02.602Z,16.00
2018-07-01T23:34:41.840Z,15.90
2018-07-01T23:37:13.506Z,15.90
2018-07-01T23:39:45.839Z,15.80
2018-07-01T23:42:17.989Z,15.80
2018-07-01T23:44:50.862Z,15.70
2018-07-01T23:47:30.239Z,15.70
2018-07-01T23:50:09.797Z,15.70
2018-07-01T23:52:42.299Z,15.70
2018-07-01T23:55:14.269Z,15.60
2018-07-01T23:57:53.607Z,15.60
